Captain Charles Philbrook — WBR5375 — position and weather

sailwx.info

Track history (hours):
 
Tides and Currents Weather Stations Pressure Air Temp Water Temp Dewpoint Dewpoint Depression Visibility Wind Speed Wind Dir Waves Ship Positions

Captain Charles Philbrook

Owner: MAINE STATE FERRY SERVICE, ROCKLAND, ME. More information available from US FCC via Universal Licensing System and Coast Guard Vessel Documentation Center.

Last reported at 2018-Apr-19 15:00 UTC. Time now 2018-Apr-19 15:10 UTC.
Position N 44°05' W 068°56'.

Length 40 m; draft 3.2 m.

Type: Passenger vessel. MMSI: 367342230.

Date/timePositionNaut miles runAvg speedWind from/ knotsBaromVisibWave heightAir tempDewpointWater temp
2018-Apr-19 15:00N 44°05' W 068°56'4 4.6
2018-Apr-19 14:04N 44°02' W 068°51'1 9.7
2018-Apr-19 13:58N 44°03' W 068°52'510.1
2018-Apr-19 13:29N 44°05' W 068°58'510.6
2018-Apr-19 13:00N 44°06' W 069°05'1 1.8
2018-Apr-19 12:18N 44°06' W 069°06'3 9.0
2018-Apr-19 12:00N 44°06' W 069°03'510.3
2018-Apr-19 11:28N 44°04' W 068°55'4 7.7
2018-Apr-19 10:57N 44°03' W 068°50'0 0.0
2018-Apr-18 21:46N 44°03' W 068°50'2 7.0
2018-Apr-18 21:29N 44°03' W 068°53'611.4
2018-Apr-18 21:00N 44°06' W 069°00'5 6.2
2018-Apr-18 20:15N 44°06' W 069°06'1 2.6
2018-Apr-18 20:00N 44°06' W 069°06'510.4
2018-Apr-18 19:30N 44°05' W 068°59'5 9.7
2018-Apr-18 19:00N 44°03' W 068°53'2 3.4
2018-Apr-18 18:29N 44°03' W 068°50'2 5.2
2018-Apr-18 18:00N 44°04' W 068°53'610.7
2018-Apr-18 17:29N 44°06' W 069°00'4 2.5
2018-Apr-18 15:45N 44°06' W 069°06'3 9.3
2018-Apr-18 15:29N 44°06' W 069°03'510.7
2018-Apr-18 14:59N 44°05' W 068°56'4 6.5
2018-Apr-18 14:19N 44°03' W 068°50'0 0.9
2018-Apr-18 13:59N 44°02' W 068°51'510.2
2018-Apr-18 13:30N 44°05' W 068°56'510.5
2018-Apr-18 12:59N 44°06' W 069°04'2 3.1
2018-Apr-18 12:21N 44°06' W 069°06'3 8.3
2018-Apr-18 12:00N 44°06' W 069°03'510.3
2018-Apr-18 11:30N 44°05' W 068°56'4 0.3
2018-Apr-17 22:06N 44°02' W 068°51'1 9.9
2018-Apr-17 22:00N 44°03' W 068°52'510.8
2018-Apr-17 21:30N 44°06' W 068°58'610.9
2018-Apr-17 20:59N 44°06' W 069°06'0 0.5
2018-Apr-17 20:28N 44°06' W 069°06'5 9.7
2018-Apr-17 20:00N 44°06' W 068°59'5 9.5
2018-Apr-17 19:28N 44°03' W 068°53'2 4.4
2018-Apr-17 18:58N 44°03' W 068°50'2 4.5
2018-Apr-17 18:30N 44°03' W 068°53'511.0
2018-Apr-17 18:01N 44°06' W 068°59'5 2.3
2018-Apr-17 15:47N 44°06' W 069°06'2 8.5
2018-Apr-17 15:30N 44°06' W 069°03'610.8
2018-Apr-17 15:00N 44°05' W 068°56'4 6.8
2018-Apr-17 14:21N 44°03' W 068°50'1 1.5
2018-Apr-17 13:59N 44°02' W 068°51'510.1
2018-Apr-17 13:31N 44°05' W 068°57'510.6
2018-Apr-17 13:00N 44°06' W 069°04'2 2.9
2018-Apr-17 12:21N 44°06' W 069°06'3 8.2
2018-Apr-17 12:00N 44°06' W 069°02'510.0
2018-Apr-17 11:30N 44°05' W 068°56'4 0.3
2018-Apr-16 21:46N 44°02' W 068°51'3 9.8
2018-Apr-16 21:30N 44°04' W 068°54'5 9.9
2018-Apr-16 21:00N 44°06' W 068°60'5 9.5
2018-Apr-16 20:30N 44°06' W 069°06'0 0.3
2018-Apr-16 19:59N 44°06' W 069°06'510.1
2018-Apr-16 19:30N 44°06' W 068°60'510.4
2018-Apr-16 18:59N 44°03' W 068°53'2 4.0
2018-Apr-16 18:30N 44°03' W 068°50'3 4.8
2018-Apr-16 17:59N 44°04' W 068°53'510.6
2018-Apr-16 17:30N 44°06' W 068°60'5 9.4
2018-Apr-16 17:00N 44°06' W 069°06'0 0.0
2018-Apr-16 16:30N 44°06' W 069°06'0 0.0
2018-Apr-16 16:00N 44°06' W 069°06'2 4.1
2018-Apr-16 15:30N 44°06' W 069°04'611.0
2018-Apr-16 14:59N 44°05' W 068°56'5 7.4
2018-Apr-16 14:21N 44°03' W 068°50'0 0.0
2018-Apr-16 12:57N 44°03' W 068°50'0 0.7
2018-Apr-16 12:28N 44°02' W 068°51'0 0.0
2018-Apr-16 06:16N 44°02' W 068°51'310.4
2018-Apr-16 05:58N 44°04' W 068°55'510.6
2018-Apr-16 05:30N 44°06' W 069°01'4 6.2
2018-Apr-16 04:50N 44°06' W 069°06'1 3.1
2018-Apr-16 04:29N 44°06' W 069°05'611.2
2018-Apr-16 03:59N 44°05' W 068°57'510.6
2018-Apr-16 03:30N 44°03' W 068°51'0 0.1
2018-Apr-15 21:40N 44°02' W 068°51'210.2
2018-Apr-15 21:30N 44°03' W 068°53'510.2
2018-Apr-15 21:00N 44°05' W 068°59'510.1
2018-Apr-15 20:28N 44°06' W 069°06'0 0.3
2018-Apr-15 20:00N 44°06' W 069°06'5 9.8
2018-Apr-15 19:30N 44°06' W 068°60'510.4
2018-Apr-15 19:00N 44°03' W 068°53'2 3.8
2018-Apr-15 18:28N 44°03' W 068°50'2 3.6
2018-Apr-15 17:59N 44°03' W 068°53'510.9
2018-Apr-15 17:30N 44°05' W 068°59'510.5
2018-Apr-15 17:00N 44°06' W 069°06'0 0.1
2018-Apr-15 16:30N 44°06' W 069°06'0 0.0
2018-Apr-15 15:59N 44°06' W 069°06'5 8.6
2018-Apr-15 15:24N 44°06' W 068°59'5 9.2
2018-Apr-15 14:49N 44°03' W 068°53'1 1.0
2018-Apr-15 13:53N 44°03' W 068°52'4 9.8
2018-Apr-15 13:30N 44°05' W 068°56'510.4
2018-Apr-15 13:00N 44°06' W 069°03'3 3.6
2018-Apr-15 12:17N 44°06' W 069°06'2 7.1
2018-Apr-15 11:59N 44°06' W 069°04'511.0
2018-Apr-15 11:30N 44°05' W 068°56'5 0.3
2018-Apr-14 21:41N 44°02' W 068°51'210.4
2018-Apr-14 21:28N 44°04' W 068°53'510.5
2018-Apr-14 20:57N 44°06' W 069°00'4 5.1
2018-Apr-14 20:05N 44°06' W 069°06'0 3.0
2018-Apr-14 20:00N 44°06' W 069°06'510.0
2018-Apr-14 19:30N 44°06' W 068°59'510.0
2018-Apr-14 19:00N 44°03' W 068°53'2 2.4
2018-Apr-14 18:14N 44°02' W 068°51'2 9.7
2018-Apr-14 17:59N 44°04' W 068°53'511.0
2018-Apr-14 17:30N 44°06' W 069°00'4 8.0
2018-Apr-14 16:56N 44°06' W 069°06'0 0.0
2018-Apr-14 16:27N 44°06' W 069°06'0 0.0
2018-Apr-14 15:55N 44°06' W 069°06'3 6.6
2018-Apr-14 15:29N 44°06' W 069°03'510.5
2018-Apr-14 15:00N 44°05' W 068°56'4 8.6
2018-Apr-14 14:29N 44°03' W 068°50'0 0.0
2018-Apr-14 13:57N 44°03' W 068°50'4 9.4
2018-Apr-14 13:29N 44°05' W 068°56'511.0
2018-Apr-14 13:00N 44°06' W 069°03'3 3.5
2018-Apr-14 12:16N 44°06' W 069°06'2 7.8
2018-Apr-14 12:00N 44°06' W 069°04'610.8
2018-Apr-14 11:29N 44°05' W 068°56'4 0.3
2018-Apr-13 21:41N 44°02' W 068°51'210.3
2018-Apr-13 21:30N 44°04' W 068°53'510.1
2018-Apr-13 21:00N 44°06' W 068°59'5 5.1
2018-Apr-13 20:00N 44°06' W 069°06'510.0
2018-Apr-13 19:31N 44°06' W 068°59'510.4
2018-Apr-13 19:00N 44°03' W 068°53'2 2.4
2018-Apr-13 18:14N 44°02' W 068°51'310.1
2018-Apr-13 17:59N 44°04' W 068°54'511.1
2018-Apr-13 17:30N 44°06' W 069°00'4 6.0
2018-Apr-13 16:46N 44°06' W 069°06'0 0.0
2018-Apr-13 16:20N 44°06' W 069°06'0 0.4
2018-Apr-13 15:48N 44°06' W 069°06'3 9.3
2018-Apr-13 15:30N 44°06' W 069°02'510.7
2018-Apr-13 15:01N 44°04' W 068°55'4 5.7
2018-Apr-13 14:17N 44°03' W 068°50'0 1.3
2018-Apr-13 13:58N 44°02' W 068°51'510.8
2018-Apr-13 13:29N 44°05' W 068°57'510.4
2018-Apr-13 12:59N 44°06' W 069°04'2 3.7
2018-Apr-13 12:29N 44°06' W 069°06'3 5.3
2018-Apr-13 12:00N 44°06' W 069°03'510.1
2018-Apr-13 11:29N 44°05' W 068°56'5 0.3
2018-Apr-12 21:42N 44°02' W 068°51'210.0
2018-Apr-12 21:29N 44°04' W 068°53'510.1
2018-Apr-12 20:59N 44°06' W 068°60'510.1
2018-Apr-12 20:30N 44°06' W 069°06'0 0.2
2018-Apr-12 20:00N 44°06' W 069°06'510.0
2018-Apr-12 19:29N 44°06' W 068°59'510.3
2018-Apr-12 18:58N 44°03' W 068°53'2 3.5
2018-Apr-12 18:29N 44°03' W 068°50'2 4.2
2018-Apr-12 17:59N 44°03' W 068°53'510.5
2018-Apr-12 17:31N 44°06' W 068°59'5 3.0
2018-Apr-12 15:46N 44°06' W 069°06'3 9.3
2018-Apr-12 15:29N 44°06' W 069°03'510.6
2018-Apr-12 14:58N 44°04' W 068°55'4 8.9
2018-Apr-12 14:30N 44°03' W 068°50'0 0.0
2018-Apr-12 13:59N 44°03' W 068°50'5 9.3
2018-Apr-12 13:29N 44°05' W 068°56'510.7
2018-Apr-12 13:00N 44°06' W 069°03'2 4.8
2018-Apr-12 12:29N 44°06' W 069°06'2 4.5
2018-Apr-12 12:00N 44°06' W 069°03'510.8
2018-Apr-12 11:30N 44°05' W 068°56'5 9.1
2018-Apr-12 10:59N 44°03' W 068°50'1 0.0
2018-Apr-11 21:41N 44°02' W 068°51'210.5
2018-Apr-11 21:30N 44°04' W 068°53'510.3
2018-Apr-11 21:00N 44°06' W 068°60'5 4.9
2018-Apr-11 20:00N 44°06' W 069°06'510.1
2018-Apr-11 19:28N 44°06' W 068°59'510.5
2018-Apr-11 18:59N 44°03' W 068°53'2 3.8
2018-Apr-11 18:29N 44°03' W 068°50'2 4.9
2018-Apr-11 17:59N 44°04' W 068°53'510.3
2018-Apr-11 17:30N 44°06' W 068°60'5 2.7
2018-Apr-11 15:45N 44°06' W 069°06'2 9.3
2018-Apr-11 15:30N 44°06' W 069°03'610.8
2018-Apr-11 14:57N 44°04' W 068°55'4 8.8
2018-Apr-11 14:30N 44°03' W 068°50'0 0.0
2018-Apr-11 14:00N 44°03' W 068°50'5 9.5
2018-Apr-11 13:30N 44°05' W 068°56'510.7
2018-Apr-11 13:00N 44°06' W 069°03'2 4.4
2018-Apr-11 12:29N 44°06' W 069°06'2 4.8
2018-Apr-11 12:00N 44°06' W 069°03'510.7
2018-Apr-11 11:30N 44°05' W 068°56'5 8.8
2018-Apr-11 10:58N 44°03' W 068°50'0 0.0
2018-Apr-11 10:28N 44°03' W 068°50'0 0.0
2018-Apr-10 21:42N 44°02' W 068°51'210.2
2018-Apr-10 21:30N 44°03' W 068°53'610.4
2018-Apr-10 20:58N 44°06' W 069°00'5 9.7
2018-Apr-10 20:30N 44°06' W 069°06'1 2.2
2018-Apr-10 20:00N 44°06' W 069°05'611.0
2018-Apr-10 19:29N 44°05' W 068°57'511.0
2018-Apr-10 19:00N 44°02' W 068°51'2 3.8
2018-Apr-10 18:29N 44°04' W 068°53'510.2
2018-Apr-10 18:00N 44°06' W 068°59'5 2.8
2018-Apr-10 16:08N 44°06' W 069°06'0 0.1
2018-Apr-10 15:46N 44°06' W 069°06'3 8.9
2018-Apr-10 15:30N 44°06' W 069°03'510.8
2018-Apr-10 15:00N 44°05' W 068°56'4 8.3
2018-Apr-10 14:28N 44°03' W 068°50'0 0.0
2018-Apr-10 13:59N 44°03' W 068°50'5 9.5
2018-Apr-10 13:29N 44°05' W 068°56'510.9
2018-Apr-10 12:59N 44°06' W 069°03'2 4.2
2018-Apr-10 12:28N 44°06' W 069°06'2 4.7
2018-Apr-10 12:00N 44°06' W 069°04'510.8
2018-Apr-10 11:30N 44°05' W 068°56'5 8.8
2018-Apr-10 10:58N 44°03' W 068°50'0 0.0
2018-Apr-09 21:47N 44°03' W 068°50'2 6.0
2018-Apr-09 21:29N 44°03' W 068°53'510.9
2018-Apr-09 21:00N 44°05' W 068°59'510.6
2018-Apr-09 20:30N 44°06' W 069°06'1 1.5
2018-Apr-09 20:00N 44°06' W 069°05'5 9.8
2018-Apr-09 19:30N 44°06' W 068°59'5 9.8
2018-Apr-09 19:00N 44°03' W 068°53'2 3.0
2018-Apr-09 18:21N 44°03' W 068°50'2 5.3
2018-Apr-09 18:00N 44°03' W 068°53'510.9
2018-Apr-09 17:30N 44°06' W 068°60'5 9.8
2018-Apr-09 17:00N 44°06' W 069°06'0 0.0
2018-Apr-09 16:27N 44°06' W 069°06'0 0.0
2018-Apr-09 15:54N 44°06' W 069°06'3 7.6
2018-Apr-09 15:29N 44°06' W 069°02'  
Track history (hours):
 
Tides and Currents Weather Stations Pressure Air Temp Water Temp Dewpoint Dewpoint Depression Visibility Wind Speed Wind Dir Waves Ship Positions

Captain Charles Philbrook

Owner: MAINE STATE FERRY SERVICE, ROCKLAND, ME. More information available from US FCC via Universal Licensing System and Coast Guard Vessel Documentation Center.

Last reported at 2018-Apr-19 15:00 UTC. Time now 2018-Apr-19 15:10 UTC.
Position N 44°05' W 068°56'.

Length 40 m; draft 3.2 m.

Type: Passenger vessel. MMSI: 367342230.

Date/timePositionNaut miles runAvg speedWind from/ knotsBaromVisibWave heightAir tempDewpointWater temp
2018-Apr-19 15:00N 44°05' W 068°56'4 4.6
2018-Apr-19 14:04N 44°02' W 068°51'1 9.7
2018-Apr-19 13:58N 44°03' W 068°52'510.1
2018-Apr-19 13:29N 44°05' W 068°58'510.6
2018-Apr-19 13:00N 44°06' W 069°05'1 1.8
2018-Apr-19 12:18N 44°06' W 069°06'3 9.0
2018-Apr-19 12:00N 44°06' W 069°03'510.3
2018-Apr-19 11:28N 44°04' W 068°55'4 7.7
2018-Apr-19 10:57N 44°03' W 068°50'0 0.0
2018-Apr-18 21:46N 44°03' W 068°50'2 7.0
2018-Apr-18 21:29N 44°03' W 068°53'611.4
2018-Apr-18 21:00N 44°06' W 069°00'5 6.2
2018-Apr-18 20:15N 44°06' W 069°06'1 2.6
2018-Apr-18 20:00N 44°06' W 069°06'510.4
2018-Apr-18 19:30N 44°05' W 068°59'5 9.7
2018-Apr-18 19:00N 44°03' W 068°53'2 3.4
2018-Apr-18 18:29N 44°03' W 068°50'2 5.2
2018-Apr-18 18:00N 44°04' W 068°53'610.7
2018-Apr-18 17:29N 44°06' W 069°00'4 2.5
2018-Apr-18 15:45N 44°06' W 069°06'3 9.3
2018-Apr-18 15:29N 44°06' W 069°03'510.7
2018-Apr-18 14:59N 44°05' W 068°56'4 6.5
2018-Apr-18 14:19N 44°03' W 068°50'0 0.9
2018-Apr-18 13:59N 44°02' W 068°51'510.2
2018-Apr-18 13:30N 44°05' W 068°56'510.5
2018-Apr-18 12:59N 44°06' W 069°04'2 3.1
2018-Apr-18 12:21N 44°06' W 069°06'3 8.3
2018-Apr-18 12:00N 44°06' W 069°03'510.3
2018-Apr-18 11:30N 44°05' W 068°56'4 0.3
2018-Apr-17 22:06N 44°02' W 068°51'1 9.9
2018-Apr-17 22:00N 44°03' W 068°52'510.8
2018-Apr-17 21:30N 44°06' W 068°58'610.9
2018-Apr-17 20:59N 44°06' W 069°06'0 0.5
2018-Apr-17 20:28N 44°06' W 069°06'5 9.7
2018-Apr-17 20:00N 44°06' W 068°59'5 9.5
2018-Apr-17 19:28N 44°03' W 068°53'2 4.4
2018-Apr-17 18:58N 44°03' W 068°50'2 4.5
2018-Apr-17 18:30N 44°03' W 068°53'511.0
2018-Apr-17 18:01N 44°06' W 068°59'5 2.3
2018-Apr-17 15:47N 44°06' W 069°06'2 8.5
2018-Apr-17 15:30N 44°06' W 069°03'610.8
2018-Apr-17 15:00N 44°05' W 068°56'4 6.8
2018-Apr-17 14:21N 44°03' W 068°50'1 1.5
2018-Apr-17 13:59N 44°02' W 068°51'510.1
2018-Apr-17 13:31N 44°05' W 068°57'510.6
2018-Apr-17 13:00N 44°06' W 069°04'2 2.9
2018-Apr-17 12:21N 44°06' W 069°06'3 8.2
2018-Apr-17 12:00N 44°06' W 069°02'510.0
2018-Apr-17 11:30N 44°05' W 068°56'4 0.3
2018-Apr-16 21:46N 44°02' W 068°51'3 9.8
2018-Apr-16 21:30N 44°04' W 068°54'5 9.9
2018-Apr-16 21:00N 44°06' W 068°60'5 9.5
2018-Apr-16 20:30N 44°06' W 069°06'0 0.3
2018-Apr-16 19:59N 44°06' W 069°06'510.1
2018-Apr-16 19:30N 44°06' W 068°60'510.4
2018-Apr-16 18:59N 44°03' W 068°53'2 4.0
2018-Apr-16 18:30N 44°03' W 068°50'3 4.8
2018-Apr-16 17:59N 44°04' W 068°53'510.6
2018-Apr-16 17:30N 44°06' W 068°60'5 9.4
2018-Apr-16 17:00N 44°06' W 069°06'0 0.0
2018-Apr-16 16:30N 44°06' W 069°06'0 0.0
2018-Apr-16 16:00N 44°06' W 069°06'2 4.1
2018-Apr-16 15:30N 44°06' W 069°04'611.0
2018-Apr-16 14:59N 44°05' W 068°56'5 7.4
2018-Apr-16 14:21N 44°03' W 068°50'0 0.0
2018-Apr-16 12:57N 44°03' W 068°50'0 0.7
2018-Apr-16 12:28N 44°02' W 068°51'0 0.0
2018-Apr-16 06:16N 44°02' W 068°51'310.4
2018-Apr-16 05:58N 44°04' W 068°55'510.6
2018-Apr-16 05:30N 44°06' W 069°01'4 6.2
2018-Apr-16 04:50N 44°06' W 069°06'1 3.1
2018-Apr-16 04:29N 44°06' W 069°05'611.2
2018-Apr-16 03:59N 44°05' W 068°57'510.6
2018-Apr-16 03:30N 44°03' W 068°51'0 0.1
2018-Apr-15 21:40N 44°02' W 068°51'210.2
2018-Apr-15 21:30N 44°03' W 068°53'510.2
2018-Apr-15 21:00N 44°05' W 068°59'510.1
2018-Apr-15 20:28N 44°06' W 069°06'0 0.3
2018-Apr-15 20:00N 44°06' W 069°06'5 9.8
2018-Apr-15 19:30N 44°06' W 068°60'510.4
2018-Apr-15 19:00N 44°03' W 068°53'2 3.8
2018-Apr-15 18:28N 44°03' W 068°50'2 3.6
2018-Apr-15 17:59N 44°03' W 068°53'510.9
2018-Apr-15 17:30N 44°05' W 068°59'510.5
2018-Apr-15 17:00N 44°06' W 069°06'0 0.1
2018-Apr-15 16:30N 44°06' W 069°06'0 0.0
2018-Apr-15 15:59N 44°06' W 069°06'5 8.6
2018-Apr-15 15:24N 44°06' W 068°59'5 9.2
2018-Apr-15 14:49N 44°03' W 068°53'1 1.0
2018-Apr-15 13:53N 44°03' W 068°52'4 9.8
2018-Apr-15 13:30N 44°05' W 068°56'510.4
2018-Apr-15 13:00N 44°06' W 069°03'3 3.6
2018-Apr-15 12:17N 44°06' W 069°06'2 7.1
2018-Apr-15 11:59N 44°06' W 069°04'511.0
2018-Apr-15 11:30N 44°05' W 068°56'5 0.3
2018-Apr-14 21:41N 44°02' W 068°51'210.4
2018-Apr-14 21:28N 44°04' W 068°53'510.5
2018-Apr-14 20:57N 44°06' W 069°00'4 5.1
2018-Apr-14 20:05N 44°06' W 069°06'0 3.0
2018-Apr-14 20:00N 44°06' W 069°06'510.0
2018-Apr-14 19:30N 44°06' W 068°59'510.0
2018-Apr-14 19:00N 44°03' W 068°53'2 2.4
2018-Apr-14 18:14N 44°02' W 068°51'2 9.7
2018-Apr-14 17:59N 44°04' W 068°53'511.0
2018-Apr-14 17:30N 44°06' W 069°00'4 8.0
2018-Apr-14 16:56N 44°06' W 069°06'0 0.0
2018-Apr-14 16:27N 44°06' W 069°06'0 0.0
2018-Apr-14 15:55N 44°06' W 069°06'3 6.6
2018-Apr-14 15:29N 44°06' W 069°03'510.5
2018-Apr-14 15:00N 44°05' W 068°56'4 8.6
2018-Apr-14 14:29N 44°03' W 068°50'0 0.0
2018-Apr-14 13:57N 44°03' W 068°50'4 9.4
2018-Apr-14 13:29N 44°05' W 068°56'511.0
2018-Apr-14 13:00N 44°06' W 069°03'3 3.5
2018-Apr-14 12:16N 44°06' W 069°06'2 7.8
2018-Apr-14 12:00N 44°06' W 069°04'610.8
2018-Apr-14 11:29N 44°05' W 068°56'4 0.3
2018-Apr-13 21:41N 44°02' W 068°51'210.3
2018-Apr-13 21:30N 44°04' W 068°53'510.1
2018-Apr-13 21:00N 44°06' W 068°59'5 5.1
2018-Apr-13 20:00N 44°06' W 069°06'510.0
2018-Apr-13 19:31N 44°06' W 068°59'510.4
2018-Apr-13 19:00N 44°03' W 068°53'2 2.4
2018-Apr-13 18:14N 44°02' W 068°51'310.1
2018-Apr-13 17:59N 44°04' W 068°54'511.1
2018-Apr-13 17:30N 44°06' W 069°00'4 6.0
2018-Apr-13 16:46N 44°06' W 069°06'0 0.0
2018-Apr-13 16:20N 44°06' W 069°06'0 0.4
2018-Apr-13 15:48N 44°06' W 069°06'3 9.3
2018-Apr-13 15:30N 44°06' W 069°02'510.7
2018-Apr-13 15:01N 44°04' W 068°55'4 5.7
2018-Apr-13 14:17N 44°03' W 068°50'0 1.3
2018-Apr-13 13:58N 44°02' W 068°51'510.8
2018-Apr-13 13:29N 44°05' W 068°57'510.4
2018-Apr-13 12:59N 44°06' W 069°04'2 3.7
2018-Apr-13 12:29N 44°06' W 069°06'3 5.3
2018-Apr-13 12:00N 44°06' W 069°03'510.1
2018-Apr-13 11:29N 44°05' W 068°56'5 0.3
2018-Apr-12 21:42N 44°02' W 068°51'210.0
2018-Apr-12 21:29N 44°04' W 068°53'510.1
2018-Apr-12 20:59N 44°06' W 068°60'510.1
2018-Apr-12 20:30N 44°06' W 069°06'0 0.2
2018-Apr-12 20:00N 44°06' W 069°06'510.0
2018-Apr-12 19:29N 44°06' W 068°59'510.3
2018-Apr-12 18:58N 44°03' W 068°53'2 3.5
2018-Apr-12 18:29N 44°03' W 068°50'2 4.2
2018-Apr-12 17:59N 44°03' W 068°53'510.5
2018-Apr-12 17:31N 44°06' W 068°59'5 3.0
2018-Apr-12 15:46N 44°06' W 069°06'3 9.3
2018-Apr-12 15:29N 44°06' W 069°03'510.6
2018-Apr-12 14:58N 44°04' W 068°55'4 8.9
2018-Apr-12 14:30N 44°03' W 068°50'0 0.0
2018-Apr-12 13:59N 44°03' W 068°50'5 9.3
2018-Apr-12 13:29N 44°05' W 068°56'510.7
2018-Apr-12 13:00N 44°06' W 069°03'2 4.8
2018-Apr-12 12:29N 44°06' W 069°06'2 4.5
2018-Apr-12 12:00N 44°06' W 069°03'510.8
2018-Apr-12 11:30N 44°05' W 068°56'5 9.1
2018-Apr-12 10:59N 44°03' W 068°50'1 0.0
2018-Apr-11 21:41N 44°02' W 068°51'210.5
2018-Apr-11 21:30N 44°04' W 068°53'510.3
2018-Apr-11 21:00N 44°06' W 068°60'5 4.9
2018-Apr-11 20:00N 44°06' W 069°06'510.1
2018-Apr-11 19:28N 44°06' W 068°59'510.5
2018-Apr-11 18:59N 44°03' W 068°53'2 3.8
2018-Apr-11 18:29N 44°03' W 068°50'2 4.9
2018-Apr-11 17:59N 44°04' W 068°53'510.3
2018-Apr-11 17:30N 44°06' W 068°60'5 2.7
2018-Apr-11 15:45N 44°06' W 069°06'2 9.3
2018-Apr-11 15:30N 44°06' W 069°03'610.8
2018-Apr-11 14:57N 44°04' W 068°55'4 8.8
2018-Apr-11 14:30N 44°03' W 068°50'0 0.0
2018-Apr-11 14:00N 44°03' W 068°50'5 9.5
2018-Apr-11 13:30N 44°05' W 068°56'510.7
2018-Apr-11 13:00N 44°06' W 069°03'2 4.4
2018-Apr-11 12:29N 44°06' W 069°06'2 4.8
2018-Apr-11 12:00N 44°06' W 069°03'510.7
2018-Apr-11 11:30N 44°05' W 068°56'5 8.8
2018-Apr-11 10:58N 44°03' W 068°50'0 0.0
2018-Apr-11 10:28N 44°03' W 068°50'0 0.0
2018-Apr-10 21:42N 44°02' W 068°51'210.2
2018-Apr-10 21:30N 44°03' W 068°53'610.4
2018-Apr-10 20:58N 44°06' W 069°00'5 9.7
2018-Apr-10 20:30N 44°06' W 069°06'1 2.2
2018-Apr-10 20:00N 44°06' W 069°05'611.0
2018-Apr-10 19:29N 44°05' W 068°57'511.0
2018-Apr-10 19:00N 44°02' W 068°51'2 3.8
2018-Apr-10 18:29N 44°04' W 068°53'510.2
2018-Apr-10 18:00N 44°06' W 068°59'5 2.8
2018-Apr-10 16:08N 44°06' W 069°06'0 0.1
2018-Apr-10 15:46N 44°06' W 069°06'3 8.9
2018-Apr-10 15:30N 44°06' W 069°03'510.8
2018-Apr-10 15:00N 44°05' W 068°56'4 8.3
2018-Apr-10 14:28N 44°03' W 068°50'0 0.0
2018-Apr-10 13:59N 44°03' W 068°50'5 9.5
2018-Apr-10 13:29N 44°05' W 068°56'510.9
2018-Apr-10 12:59N 44°06' W 069°03'2 4.2
2018-Apr-10 12:28N 44°06' W 069°06'2 4.7
2018-Apr-10 12:00N 44°06' W 069°04'510.8
2018-Apr-10 11:30N 44°05' W 068°56'5 8.8
2018-Apr-10 10:58N 44°03' W 068°50'0 0.0
2018-Apr-09 21:47N 44°03' W 068°50'2 6.0
2018-Apr-09 21:29N 44°03' W 068°53'510.9
2018-Apr-09 21:00N 44°05' W 068°59'510.6
2018-Apr-09 20:30N 44°06' W 069°06'1 1.5
2018-Apr-09 20:00N 44°06' W 069°05'5 9.8
2018-Apr-09 19:30N 44°06' W 068°59'5 9.8
2018-Apr-09 19:00N 44°03' W 068°53'2 3.0
2018-Apr-09 18:21N 44°03' W 068°50'2 5.3
2018-Apr-09 18:00N 44°03' W 068°53'510.9
2018-Apr-09 17:30N 44°06' W 068°60'5 9.8
2018-Apr-09 17:00N 44°06' W 069°06'0 0.0
2018-Apr-09 16:27N 44°06' W 069°06'0 0.0
2018-Apr-09 15:54N 44°06' W 069°06'3 7.6
2018-Apr-09 15:29N 44°06' W 069°02'  

Dump ship's entire track history